Time;durP1;ratioP1;P1;durP2;ratioP2;P2;SDS_P1;SDS_P2;PMS_P1;PMS_P2;Temp;Humidity;BMP_temperature;BMP_pressure;BME280_temperature;BME280_humidity;BME280_pressure;Samples;Min_cycle;Max_cycle;Signal;HPM_P1;HPM_P2
2022/05/27 00:00:44;;;;;;;80.10;75.40;;;;;;;16.68;100.00;102259.66;1976631;72;24584;-74
2022/05/27 00:03:15;;;;;;;79.83;74.93;;;;;;;16.69;100.00;102268.89;1982397;72;24266;-74
2022/05/27 00:05:45;;;;;;;76.83;72.23;;;;;;;16.72;100.00;102260.75;1981128;72;24150;-74
2022/05/27 00:08:15;;;;;;;75.20;70.40;;;;;;;16.67;100.00;102266.96;1980283;72;24107;-74
2022/05/27 00:13:52;;;;;;;75.50;70.63;;;;;;;16.75;100.00;102253.70;2060979;69;30638;-72
2022/05/27 00:16:23;;;;;;;72.50;67.90;;;;;;;16.60;100.00;102268.67;1946998;73;26247;-73
2022/05/27 00:18:55;;;;;;;71.83;67.23;;;;;;;16.62;100.00;102258.02;1941405;73;24156;-73
2022/05/27 00:21:26;;;;;;;73.03;68.33;;;;;;;16.68;100.00;102263.87;1966082;72;26723;-72
2022/05/27 00:23:56;;;;;;;74.77;69.97;;;;;;;16.63;100.00;102260.26;1927267;73;24264;-72
2022/05/27 00:26:26;;;;;;;77.00;72.10;;;;;;;16.61;100.00;102261.09;2013460;70;24234;-72
2022/05/27 00:28:58;;;;;;;79.43;74.53;;;;;;;16.59;100.00;102262.81;2016776;71;24134;-72
2022/05/27 00:31:28;;;;;;;75.80;71.00;;;;;;;16.65;100.00;102266.39;2016785;70;24273;-73
2022/05/27 00:33:58;;;;;;;75.97;71.17;;;;;;;16.66;100.00;102263.31;2016379;70;24692;-72
2022/05/27 00:36:28;;;;;;;74.10;69.40;;;;;;;16.65;100.00;102266.39;2016685;70;24182;-72
2022/05/27 00:39:00;;;;;;;74.10;69.30;;;;;;;16.62;100.00;102266.43;2015042;70;24252;-73
2022/05/27 00:41:31;;;;;;;71.80;67.10;;;;;;;16.60;100.00;102268.67;2012972;70;24145;-73
2022/05/27 00:44:05;;;;;;;75.80;71.00;;;;;;;16.61;100.00;102266.70;2018538;70;24173;-72
2022/05/27 00:46:36;;;;;;;76.90;71.97;;;;;;;16.59;100.00;102257.77;2017547;70;24604;-72
2022/05/27 00:49:11;;;;;;;73.93;69.13;;;;;;;16.52;100.00;102258.59;2004306;70;26693;-72
2022/05/27 00:51:45;;;;;;;74.33;69.33;;;;;;;16.53;100.00;102258.88;2013244;70;24147;-72
2022/05/27 00:54:18;;;;;;;76.77;71.47;;;;;;;16.56;100.00;102269.55;2013461;70;24251;-72
2022/05/27 00:56:52;;;;;;;72.57;67.57;;;;;;;16.37;100.00;102264.61;1995203;72;26246;-72
2022/05/27 00:59:25;;;;;;;70.63;65.63;;;;;;;16.37;100.00;102264.61;1990612;72;24215;-72
2022/05/27 01:01:55;;;;;;;74.37;69.37;;;;;;;16.31;100.00;102275.56;1981592;72;24227;-72
2022/05/27 01:04:27;;;;;;;77.20;72.10;;;;;;;16.30;100.00;102271.08;1937923;74;26194;-73
2022/05/27 01:06:57;;;;;;;77.40;72.30;;;;;;;16.30;100.00;102271.08;1943492;73;24702;-73
2022/05/27 01:09:30;;;;;;;80.40;75.20;;;;;;;16.24;100.00;102273.66;1932056;74;24165;-73
2022/05/27 01:15:19;;;;;;;74.87;69.67;;;;;;;16.19;100.00;102271.43;2060563;69;32633;-71
2022/05/27 01:17:55;;;;;;;74.97;69.73;;;;;;;16.15;100.00;102285.75;2017364;71;26344;-72
2022/05/27 01:20:34;;;;;;;68.63;63.63;;;;;;;16.04;100.00;102275.72;2011073;70;26239;-72
2022/05/27 01:23:32;;;;;;;78.47;73.17;;;;;;;15.93;100.00;102268.75;2016064;71;24207;-72
2022/05/27 01:26:48;;;;;;;70.50;65.60;;;;;;;15.93;100.00;102268.75;2009123;70;26210;-71
2022/05/27 01:29:31;;;;;;;73.93;68.83;;;;;;;15.85;100.00;102274.95;1916850;70;26912;-72
2022/05/27 01:32:04;;;;;;;71.20;65.97;;;;;;;15.81;100.00;102274.41;2022713;70;26211;-72
2022/05/27 01:34:39;;;;;;;69.97;64.67;;;;;;;15.63;100.00;102270.26;2008195;70;26209;-72
2022/05/27 01:37:12;;;;;;;67.37;62.27;;;;;;;15.64;100.00;102273.91;2013450;70;26271;-72
2022/05/27 01:39:45;;;;;;;72.00;66.90;;;;;;;15.59;100.00;102269.16;2014848;70;26215;-73
2022/05/27 01:42:19;;;;;;;73.83;68.53;;;;;;;15.51;100.00;102278.14;1936862;73;26228;-73
2022/05/27 01:44:52;;;;;;;71.17;65.93;;;;;;;15.49;100.00;102275.58;1934765;73;26265;-73
2022/05/27 01:47:25;;;;;;;70.77;65.57;;;;;;;15.60;100.00;102281.20;1941245;73;24246;-73
2022/05/27 01:49:59;;;;;;;73.17;67.87;;;;;;;15.66;100.00;102275.88;1935236;73;24150;-73
2022/05/27 01:52:32;;;;;;;72.13;66.97;;;;;;;15.66;100.00;102276.69;1937967;74;26665;-72
2022/05/27 01:55:06;;;;;;;73.13;67.80;;;;;;;15.63;100.00;102286.22;1961354;72;26214;-73
2022/05/27 01:57:39;;;;;;;73.50;68.20;;;;;;;15.63;100.00;102286.22;1910768;74;26618;-73
2022/05/27 02:00:16;;;;;;;68.50;63.40;;;;;;;15.63;100.00;102284.27;1973146;72;26522;-73
2022/05/27 02:02:49;;;;;;;75.13;69.83;;;;;;;15.61;100.00;102284.28;1994095;72;26193;-72
2022/05/27 02:05:23;;;;;;;71.83;66.73;;;;;;;15.60;100.00;102289.05;1961633;72;26625;-72
2022/05/27 02:07:56;;;;;;;68.37;63.30;;;;;;;15.61;100.00;102289.33;1898725;75;26218;-73
2022/05/27 02:10:30;;;;;;;70.80;65.70;;;;;;;15.68;100.00;102291.27;1895044;74;26226;-72
2022/05/27 02:13:04;;;;;;;69.50;64.20;;;;;;;15.62;100.00;102293.78;1908572;74;26288;-72
2022/05/27 02:15:37;;;;;;;68.17;63.07;;;;;;;15.66;100.00;102290.69;1908571;75;26207;-72
2022/05/27 02:18:10;;;;;;;69.67;64.53;;;;;;;15.71;100.00;102290.68;1908475;75;26288;-72
2022/05/27 02:20:44;;;;;;;70.93;65.63;;;;;;;15.70;100.00;102293.20;1908654;75;26257;-73
2022/05/27 02:23:18;;;;;;;68.93;63.83;;;;;;;15.70;100.00;102286.78;1908550;75;26684;-72
2022/05/27 02:25:49;;;;;;;67.90;62.80;;;;;;;15.60;100.00;102295.20;1908107;75;26226;-71
2022/05/27 02:28:23;;;;;;;69.90;64.70;;;;;;;15.49;100.00;102283.98;1907812;75;26205;-72
2022/05/27 02:30:56;;;;;;;73.73;68.37;;;;;;;15.46;100.00;102283.16;1907852;75;26252;-73
2022/05/27 02:36:38;;;;;;;74.10;68.70;;;;;;;15.34;100.00;102278.98;2045489;69;32643;-72
2022/05/27 02:39:10;;;;;;;71.77;66.67;;;;;;;15.33;100.00;102280.94;1950509;73;26299;-72
2022/05/27 02:41:43;;;;;;;72.90;67.70;;;;;;;15.33;100.00;102287.09;2012915;70;26285;-71
2022/05/27 02:47:29;;;;;;;71.50;66.20;;;;;;;15.50;100.00;102294.66;2042770;69;32732;-72
2022/05/27 02:50:03;;;;;;;70.37;65.27;;;;;;;15.34;100.00;102297.18;2005212;70;26225;-72
2022/05/27 02:55:47;;;;;;;77.73;72.53;;;;;;;15.49;100.00;102290.98;2024153;69;32780;-73
2022/05/27 02:58:17;;;;;;;75.53;70.40;;;;;;;15.46;100.00;102296.31;1980254;72;26202;-73
2022/05/27 03:00:48;;;;;;;80.10;74.67;;;;;;;15.49;100.00;102292.38;1982860;72;26704;-73
2022/05/27 03:03:18;;;;;;;76.63;71.43;;;;;;;15.53;100.00;102290.47;1990249;72;26392;-73
2022/05/27 03:09:06;;;;;;;77.77;72.47;;;;;;;15.58;100.00;102277.83;2042308;69;32703;-73
2022/05/27 03:15:13;;;;;;;78.23;72.90;;;;;;;15.53;100.00;102280.67;2045772;69;32713;-72
2022/05/27 03:18:00;;;;;;;74.27;69.23;;;;;;;15.57;100.00;102286.83;2012094;70;26213;-73
2022/05/27 03:20:44;;;;;;;75.03;69.67;;;;;;;15.58;100.00;102281.47;2011687;70;26294;-73
2022/05/27 03:23:22;;;;;;;71.27;66.07;;;;;;;15.57;100.00;102285.98;2023965;70;26671;-73
2022/05/27 03:25:55;;;;;;;74.20;69.00;;;;;;;15.61;100.00;102286.53;2010641;70;26289;-73
2022/05/27 03:28:29;;;;;;;76.70;71.43;;;;;;;15.59;100.00;102284.56;2015039;70;26213;-72
2022/05/27 03:31:02;;;;;;;72.03;67.03;;;;;;;15.54;100.00;102290.73;2011565;70;26307;-74
2022/05/27 03:33:37;;;;;;;71.43;66.40;;;;;;;15.54;100.00;102281.77;2004761;70;26190;-73
2022/05/27 03:36:11;;;;;;;76.80;71.40;;;;;;;15.51;100.00;102284.30;1932503;73;26254;-73
2022/05/27 03:38:44;;;;;;;80.00;74.70;;;;;;;15.37;100.00;102288.20;2012450;70;26218;-73
2022/05/27 03:41:17;;;;;;;81.97;76.50;;;;;;;15.45;100.00;102285.67;2017682;70;26210;-73
2022/05/27 03:46:55;;;;;;;81.30;76.03;;;;;;;15.44;100.00;102278.97;2061037;69;33160;-73
2022/05/27 03:49:26;;;;;;;80.07;74.70;;;;;;;15.35;100.00;102285.71;1941996;73;26255;-72
2022/05/27 03:51:59;;;;;;;79.90;74.50;;;;;;;15.35;100.00;102288.51;1937015;73;26203;-73
2022/05/27 03:54:29;;;;;;;79.00;73.60;;;;;;;15.31;100.00;102293.00;1934357;73;26222;-72
2022/05/27 03:57:02;;;;;;;79.50;74.20;;;;;;;15.35;100.00;102290.47;1934108;73;26678;-72
2022/05/27 03:59:32;;;;;;;76.27;70.97;;;;;;;15.32;100.00;102294.66;1903559;74;26461;-73
2022/05/27 04:05:12;;;;;;;86.40;80.40;;;;;;;15.27;100.00;102292.44;2049535;69;32725;-73
2022/05/27 04:07:42;;;;;;;85.97;79.90;;;;;;;15.25;100.00;102305.31;1950534;73;26237;-73
2022/05/27 04:10:15;;;;;;;86.83;80.97;;;;;;;15.21;100.00;102311.19;2024655;70;26201;-74
2022/05/27 04:12:45;;;;;;;84.70;78.70;;;;;;;15.18;100.00;102306.16;2020082;70;26227;-73
2022/05/27 04:15:15;;;;;;;84.33;78.43;;;;;;;15.15;100.00;102315.09;2016712;70;26795;-73
2022/05/27 04:17:45;;;;;;;82.27;76.67;;;;;;;15.15;100.00;102316.50;2016838;70;26579;-74
2022/05/27 04:20:18;;;;;;;86.37;80.60;;;;;;;15.06;100.00;102314.56;2017135;70;26231;-73
2022/05/27 04:22:54;;;;;;;87.10;81.20;;;;;;;15.09;100.00;102321.84;2012257;70;26323;-73
2022/05/27 04:25:24;;;;;;;83.37;77.63;;;;;;;15.04;100.00;102324.08;2011688;70;26367;-73
2022/05/27 04:27:55;;;;;;;84.70;78.90;;;;;;;15.06;100.00;102325.77;2034066;70;26230;-73
2022/05/27 04:30:28;;;;;;;83.70;78.00;;;;;;;15.05;100.00;102324.92;2017573;70;26698;-73
2022/05/27 04:32:58;;;;;;;81.50;75.90;;;;;;;15.09;100.00;102320.99;2018194;70;26296;-73
2022/05/27 04:35:28;;;;;;;82.73;77.03;;;;;;;15.08;100.00;102331.34;2010273;70;26218;-73
2022/05/27 04:37:58;;;;;;;82.67;76.67;;;;;;;15.12;100.00;102329.66;2033395;70;26174;-74
2022/05/27 04:40:28;;;;;;;81.87;76.17;;;;;;;15.13;100.00;102335.55;2012837;70;26217;-73
2022/05/27 04:42:59;;;;;;;83.47;77.67;;;;;;;15.13;100.00;102341.15;2016618;70;26254;-73
2022/05/27 04:45:30;;;;;;;80.87;75.23;;;;;;;15.11;100.00;102346.17;2015912;70;26284;-73
2022/05/27 04:48:01;;;;;;;82.40;76.70;;;;;;;15.12;100.00;102347.02;2013021;70;26402;-74
2022/05/27 04:50:31;;;;;;;82.73;76.93;;;;;;;15.12;100.00;102349.27;2019608;70;26696;-73
2022/05/27 04:53:01;;;;;;;84.47;78.63;;;;;;;15.14;100.00;102348.99;2016902;71;26294;-73
2022/05/27 04:55:34;;;;;;;82.10;76.17;;;;;;;15.11;100.00;102348.97;1999097;70;26487;-73
2022/05/27 04:58:04;;;;;;;82.17;76.43;;;;;;;15.07;100.00;102347.84;1980192;72;26326;-73
2022/05/27 05:00:37;;;;;;;79.77;73.97;;;;;;;15.07;100.00;102349.25;1986558;72;26233;-73
2022/05/27 05:03:09;;;;;;;85.20;79.20;;;;;;;15.04;100.00;102338.63;1980300;71;26336;-73
2022/05/27 05:05:40;;;;;;;85.30;79.40;;;;;;;15.03;100.00;102341.13;1980243;72;26271;-73
2022/05/27 05:08:17;;;;;;;80.77;75.10;;;;;;;15.08;100.00;102346.74;1980373;72;26289;-74
2022/05/27 05:10:48;;;;;;;84.67;78.93;;;;;;;15.09;100.00;102345.63;1980338;72;26672;-73
2022/05/27 05:13:18;;;;;;;83.90;78.10;;;;;;;15.09;100.00;102349.83;1980188;72;26259;-73
2022/05/27 05:16:07;;;;;;;87.03;81.03;;;;;;;15.09;100.00;102351.78;1979608;72;26212;-73
2022/05/27 05:18:37;;;;;;;81.87;76.27;;;;;;;15.12;100.00;102356.25;1979412;72;26278;-74
2022/05/27 05:21:08;;;;;;;80.30;74.50;;;;;;;15.12;100.00;102361.86;1979730;72;26700;-73
2022/05/27 05:23:38;;;;;;;85.50;79.73;;;;;;;15.15;100.00;102353.45;1979566;72;26171;-73
2022/05/27 05:26:08;;;;;;;80.00;74.43;;;;;;;15.13;100.00;102350.10;1979774;72;26205;-73
2022/05/27 05:28:39;;;;;;;78.63;73.00;;;;;;;15.12;100.00;102352.06;1979708;72;26212;-73
2022/05/27 05:31:13;;;;;;;80.40;74.60;;;;;;;15.09;100.00;102351.78;1979708;72;26319;-73
2022/05/27 05:33:41;;;;;;;82.03;76.53;;;;;;;15.12;100.00;102362.41;1979391;72;26171;-73
2022/05/27 05:36:11;;;;;;;79.10;73.50;;;;;;;15.11;100.00;102362.97;1979663;72;26190;-73
2022/05/27 05:38:42;;;;;;;79.50;73.80;;;;;;;15.09;100.00;102366.63;1979634;72;26755;-73
2022/05/27 05:41:12;;;;;;;79.37;73.77;;;;;;;15.12;100.00;102368.01;1979488;72;26249;-73
2022/05/27 05:43:42;;;;;;;81.17;75.70;;;;;;;15.17;100.00;102371.66;1979431;72;26168;-73
2022/05/27 05:46:12;;;;;;;79.07;73.47;;;;;;;15.19;100.00;102371.39;1979479;72;26674;-73
2022/05/27 05:48:42;;;;;;;78.63;73.03;;;;;;;15.17;100.00;102367.46;1979605;72;26681;-73
2022/05/27 05:51:13;;;;;;;77.70;72.20;;;;;;;15.16;100.00;102370.53;1979797;72;26625;-73
2022/05/27 05:53:43;;;;;;;77.03;71.63;;;;;;;15.13;100.00;102366.90;1979563;72;26205;-73
2022/05/27 05:56:14;;;;;;;78.23;72.63;;;;;;;15.15;100.00;102361.84;1979576;72;26704;-74
2022/05/27 05:58:44;;;;;;;77.57;72.00;;;;;;;15.18;100.00;102369.70;1979460;72;26189;-73
2022/05/27 06:01:14;;;;;;;77.13;71.53;;;;;;;15.09;100.00;102373.62;1979564;72;26197;-73
2022/05/27 06:03:45;;;;;;;79.70;74.23;;;;;;;15.14;100.00;102370.83;1979509;72;26221;-73
2022/05/27 06:06:17;;;;;;;79.80;74.37;;;;;;;15.20;100.00;102378.64;1979659;72;26220;-73
2022/05/27 06:08:47;;;;;;;81.27;75.53;;;;;;;15.26;100.00;102378.94;1979738;72;26310;-72
2022/05/27 06:11:17;;;;;;;78.87;73.27;;;;;;;15.31;100.00;102384.00;1979708;72;26365;-73
2022/05/27 06:13:47;;;;;;;82.50;77.10;;;;;;;15.39;100.00;102376.98;1979622;72;26727;-73
2022/05/27 06:16:18;;;;;;;80.67;75.33;;;;;;;15.32;100.00;102377.25;1979708;72;26201;-73
2022/05/27 06:18:49;;;;;;;76.07;71.07;;;;;;;15.37;100.00;102380.05;1979912;72;26163;-72
2022/05/27 06:21:19;;;;;;;67.83;63.17;;;;;;;15.25;100.00;102383.70;1979639;72;26669;-73
2022/05/27 06:23:51;;;;;;;76.70;71.77;;;;;;;15.34;100.00;102382.02;1979884;72;26635;-74
2022/05/27 06:26:21;;;;;;;75.70;70.77;;;;;;;15.31;100.00;102384.55;1979612;72;26168;-72
2022/05/27 06:34:29;;;;;;;68.40;63.70;;;;;;;15.42;100.00;102395.46;1979625;72;26291;-72
2022/05/27 06:40:09;;;;;;;69.33;64.70;;;;;;;15.69;100.00;102388.75;2049780;69;32615;-71
2022/05/27 06:42:40;;;;;;;64.47;60.40;;;;;;;15.67;100.00;102403.03;1935140;73;26311;-71
2022/05/27 06:45:15;;;;;;;65.03;60.83;;;;;;;15.54;100.00;102395.76;1943093;73;26216;-71
2022/05/27 06:47:46;;;;;;;65.47;61.23;;;;;;;15.51;100.00;102406.13;1965691;72;26208;-73
2022/05/27 06:50:16;;;;;;;65.43;61.20;;;;;;;15.55;100.00;102400.25;1938189;73;26347;-72
2022/05/27 06:52:46;;;;;;;66.13;62.03;;;;;;;15.50;100.00;102396.89;1934499;73;26224;-70
2022/05/27 06:55:17;;;;;;;66.40;62.00;;;;;;;15.46;100.00;102396.58;1931708;74;26781;-71
2022/05/27 06:57:47;;;;;;;66.20;61.90;;;;;;;15.40;100.00;102407.48;1940566;73;26231;-71
2022/05/27 07:00:20;;;;;;;64.80;60.80;;;;;;;15.33;100.00;102411.70;1969869;72;26225;-70
2022/05/27 07:02:50;;;;;;;64.47;60.20;;;;;;;15.32;100.00;102413.65;1935912;73;26293;-70
2022/05/27 07:05:20;;;;;;;62.93;58.77;;;;;;;15.39;100.00;102413.39;1938669;73;26227;-69
2022/05/27 07:07:52;;;;;;;65.97;61.67;;;;;;;15.34;100.00;102415.63;1927624;73;26310;-69
2022/05/27 07:10:23;;;;;;;62.33;58.43;;;;;;;15.47;100.00;102422.63;1967566;72;26366;-72
2022/05/27 07:12:59;;;;;;;59.73;55.73;;;;;;;15.49;100.00;102415.61;1934204;73;26694;-74
2022/05/27 07:15:30;;;;;;;60.50;56.80;;;;;;;15.61;100.00;102415.94;1935094;73;26687;-72
2022/05/27 07:21:09;;;;;;;61.80;57.83;;;;;;;15.54;100.00;102423.77;2061292;69;32623;-71
2022/05/27 07:23:41;;;;;;;62.50;58.70;;;;;;;15.41;100.00;102427.38;1932634;73;26321;-72
2022/05/27 07:26:11;;;;;;;63.70;59.43;;;;;;;15.39;100.00;102431.59;1937858;73;26304;-71
2022/05/27 07:28:41;;;;;;;60.53;57.10;;;;;;;15.44;100.00;102438.05;1965552;72;26234;-70
2022/05/27 07:31:12;;;;;;;56.73;53.50;;;;;;;15.66;100.00;102440.57;1928996;73;26225;-69
2022/05/27 07:33:42;;;;;;;50.40;47.20;;;;;;;15.85;100.00;102431.88;2002081;70;26265;-66
2022/05/27 07:36:12;;;;;;;50.63;47.70;;;;;;;16.05;100.00;102433.80;2016029;70;26227;-70
2022/05/27 07:38:42;;;;;;;43.93;41.03;;;;;;;16.20;100.00;102435.73;2019167;70;26313;-69
2022/05/27 07:41:13;;;;;;;47.10;44.17;;;;;;;16.17;100.00;102429.31;2016427;70;26683;-69
2022/05/27 07:43:43;;;;;;;43.17;40.43;;;;;;;16.12;100.00;102431.56;2019104;70;26684;-69
2022/05/27 07:46:15;;;;;;;36.20;33.90;;;;;;;16.51;100.00;102372.80;2003541;70;26737;-69
2022/05/27 07:48:46;;;;;;;33.87;31.87;;;;;;;16.87;100.00;102431.55;2004437;70;24173;-69
2022/05/27 07:51:16;;;;;;;30.97;29.20;;;;;;;17.12;100.00;102440.66;2015591;70;24239;-71
2022/05/27 07:53:46;;;;;;;32.87;30.67;;;;;;;16.84;100.00;102437.20;2009360;70;24158;-71
2022/05/27 07:56:17;;;;;;;31.37;28.70;;;;;;;17.01;100.00;102434.01;1988531;70;26675;-69
2022/05/27 07:58:47;;;;;;;33.60;31.20;;;;;;;17.01;100.00;102434.01;1975534;72;24223;-69
2022/05/27 08:01:18;;;;;;;30.73;28.63;;;;;;;16.86;100.00;102445.34;1978866;72;26775;-69
2022/05/27 08:03:48;;;;;;;31.90;29.63;;;;;;;16.86;100.00;102445.34;1978257;72;26300;-69
2022/05/27 08:06:18;;;;;;;32.50;30.27;;;;;;;16.83;100.00;102453.75;1980297;72;26696;-69
2022/05/27 08:08:48;;;;;;;30.63;28.47;;;;;;;16.89;100.00;102448.41;1971266;72;26205;-68
2022/05/27 08:11:19;;;;;;;30.30;28.17;;;;;;;17.07;100.00;102444.09;1980263;72;24733;-69
2022/05/27 08:13:49;;;;;;;27.83;26.03;;;;;;;17.21;100.00;102443.14;1977969;72;24339;-69
2022/05/27 08:16:19;;;;;;;29.00;26.70;;;;;;;17.25;100.00;102442.83;1993776;72;26620;-70
2022/05/27 08:18:53;;;;;;;27.73;25.73;;;;;;;17.25;100.00;102442.83;1971044;72;24158;-69
2022/05/27 08:21:25;;;;;;;27.10;25.47;;;;;;;17.09;100.00;102441.81;1980247;71;26237;-69
2022/05/27 08:23:55;;;;;;;25.73;23.97;;;;;;;17.50;100.00;102428.34;1980187;72;24170;-69
2022/05/27 08:26:42;;;;;;;24.80;23.10;;;;;;;17.50;100.00;102428.34;1980144;72;24122;-69
2022/05/27 08:32:19;;;;;;;22.17;20.77;;;;;;;17.85;100.00;102427.19;2029465;69;32698;-70
2022/05/27 08:43:39;;;;;;;24.00;22.47;;;;;;;17.41;100.00;102437.11;2061014;69;30587;-70
2022/05/27 08:46:14;;;;;;;24.03;22.53;;;;;;;17.19;100.00;102451.03;2022324;70;24141;-70
2022/05/27 08:48:47;;;;;;;23.13;21.40;;;;;;;17.24;100.00;102449.56;2019399;70;24163;-70
2022/05/27 08:54:27;;;;;;;24.97;23.33;;;;;;;16.87;100.00;102454.02;2037488;69;32624;-69
2022/05/27 09:03:00;;;;;;;20.93;19.50;;;;;;;17.26;100.00;102458.55;2049912;69;30587;-70
2022/05/27 09:05:34;;;;;;;21.93;20.33;;;;;;;17.44;100.00;102458.99;2016997;70;26701;-70
2022/05/27 09:11:26;;;;;;;19.13;17.93;;;;;;;17.60;100.00;102455.80;1890194;76;31103;-69
2022/05/27 09:13:59;;;;;;;19.53;17.73;;;;;;;17.86;100.00;102464.01;1846225;77;24686;-70
2022/05/27 09:19:41;;;;;;;17.30;16.07;;;;;;;17.54;100.00;102463.14;2034225;69;32722;-70
2022/05/27 09:22:15;;;;;;;19.20;17.80;;;;;;;17.47;100.00;102469.64;2020973;71;24130;-70
2022/05/27 09:24:54;;;;;;;21.93;20.37;;;;;;;17.30;100.00;102465.83;2016795;70;24158;-70
2022/05/27 09:27:28;;;;;;;23.67;22.03;;;;;;;17.11;100.00;102474.11;1938019;74;24117;-70
2022/05/27 09:30:02;;;;;;;17.60;16.27;;;;;;;17.50;100.00;102469.89;1937631;73;24159;-70
2022/05/27 09:32:37;;;;;;;16.57;15.37;;;;;;;17.72;100.00;102467.50;1966225;73;26280;-71
2022/05/27 09:35:10;;;;;;;16.83;15.73;;;;;;;17.59;100.00;102468.16;1970873;72;26285;-70
2022/05/27 09:37:44;;;;;;;15.13;14.10;;;;;;;17.59;100.00;102475.19;1946976;73;24202;-70
2022/05/27 09:40:18;;;;;;;15.90;14.37;;;;;;;18.06;100.00;102465.21;1933998;73;24165;-70
2022/05/27 09:42:51;;;;;;;13.80;12.70;;;;;;;18.23;100.00;102462.78;1967523;72;24151;-70
2022/05/27 09:45:21;;;;;;;14.50;13.17;;;;;;;18.64;100.00;102452.78;1967059;72;26335;-70
2022/05/27 09:47:55;;;;;;;14.60;13.27;;;;;;;18.14;100.00;102460.37;1937960;74;24132;-70
2022/05/27 09:50:31;;;;;;;13.70;12.47;;;;;;;18.10;100.00;102468.54;1938006;74;24102;-70
2022/05/27 09:53:04;;;;;;;14.07;12.80;;;;;;;18.25;100.00;102463.34;1937847;74;24140;-70
2022/05/27 09:58:45;;;;;;;14.03;12.83;;;;;;;17.87;100.00;102479.19;2051224;69;30571;-70
2022/05/27 10:01:24;;;;;;;13.70;12.40;;;;;;;18.10;100.00;102481.20;2014815;71;24187;-68
2022/05/27 10:04:02;;;;;;;13.07;11.97;;;;;;;17.78;100.00;102478.70;1938046;73;24172;-70
2022/05/27 10:06:35;;;;;;;14.30;12.83;;;;;;;17.72;100.00;102487.73;1934278;73;24237;-71
2022/05/27 10:09:08;;;;;;;14.77;13.03;;;;;;;17.69;100.00;102490.58;1972539;72;24223;-71
2022/05/27 10:11:50;;;;;;;13.70;12.63;;;;;;;17.72;100.00;102484.92;1932614;73;26286;-71
2022/05/27 10:14:24;;;;;;;13.23;12.13;;;;;;;17.66;100.00;102482.74;1941610;73;26730;-70
2022/05/27 10:17:09;;;;;;;14.03;12.63;;;;;;;18.05;100.00;102487.47;1966304;72;24155;-70
2022/05/27 10:19:41;;;;;;;13.13;12.10;;;;;;;18.19;100.00;102493.48;1930460;73;24210;-70
2022/05/27 10:22:22;;;;;;;13.00;11.97;;;;;;;18.39;100.00;102485.42;1971422;72;24210;-70
2022/05/27 10:25:00;;;;;;;13.10;12.00;;;;;;;18.42;100.00;102491.01;1932964;73;24184;-70
2022/05/27 10:27:38;;;;;;;13.90;12.70;;;;;;;18.36;100.00;102483.18;1970561;72;24206;-70
2022/05/27 10:30:12;;;;;;;13.53;12.37;;;;;;;18.47;100.00;102482.52;1940349;73;24163;-70
2022/05/27 10:32:45;;;;;;;13.37;12.27;;;;;;;18.60;100.00;102476.20;1935322;73;24155;-70
2022/05/27 10:35:34;;;;;;;13.57;12.40;;;;;;;18.49;100.00;102481.63;1975043;72;24189;-70
2022/05/27 10:38:33;;;;;;;13.87;12.57;;;;;;;18.34;100.00;102482.66;1939127;73;26735;-70
2022/05/27 10:41:07;;;;;;;13.53;12.30;;;;;;;18.84;100.00;102474.76;1934420;73;24244;-70
2022/05/27 10:43:46;;;;;;;13.50;12.20;;;;;;;19.09;100.00;102472.44;1948642;73;26235;-70
2022/05/27 10:46:19;;;;;;;13.30;12.17;;;;;;;18.90;100.00;102465.95;1954547;73;24105;-69
2022/05/27 10:49:19;;;;;;;13.40;12.17;;;;;;;18.61;100.00;102461.80;1967400;72;24224;-69
2022/05/27 10:51:58;;;;;;;12.93;11.73;;;;;;;18.60;100.00;102466.34;1935075;73;24219;-69
2022/05/27 10:54:44;;;;;;;13.30;12.07;;;;;;;18.51;100.00;102470.92;1946283;73;24216;-70
2022/05/27 11:04:04;;;;;;;13.13;11.77;;;;;;;18.36;100.00;102471.92;1913802;75;24713;-69
2022/05/27 11:09:52;;;;;;;13.67;12.53;;;;;;;18.64;100.00;102466.86;2061264;69;32412;-68
2022/05/27 11:15:10;;;;;;;14.10;12.87;;;;;;;18.48;100.00;102479.97;2016717;70;24170;-68
2022/05/27 11:15:11;;;;;;;12.90;11.80;;;;;;;18.44;100.00;102471.86;2012425;70;24197;-68
2022/05/27 11:21:27;;;;;;;14.43;12.43;;;;;;;18.55;100.00;102470.63;2053642;69;30657;-67
2022/05/27 11:24:24;;;;;;;12.20;11.20;;;;;;;18.55;100.00;102470.63;1935774;73;26648;-69
2022/05/27 11:26:58;;;;;;;12.53;11.63;;;;;;;18.94;100.00;102461.96;1940426;73;24172;-68
2022/05/27 11:33:14;;;;;;;13.27;11.97;;;;;;;18.90;100.00;102452.44;2061069;69;30550;-69
2022/05/27 11:35:53;;;;;;;13.13;11.83;;;;;;;18.75;100.00;102459.67;2019013;70;24343;-67
2022/05/27 11:38:35;;;;;;;13.50;12.20;;;;;;;18.84;100.00;102447.44;2013906;70;24235;-67
2022/05/27 11:44:20;;;;;;;13.83;12.73;;;;;;;19.01;100.00;102452.55;2049281;69;30584;-68
2022/05/27 11:47:06;;;;;;;13.20;11.97;;;;;;;18.95;100.00;102465.05;2008639;70;26325;-68
2022/05/27 11:49:56;;;;;;;13.50;12.07;;;;;;;19.05;100.00;102454.47;2023430;71;24187;-68
2022/05/27 11:52:37;;;;;;;13.97;12.73;;;;;;;19.09;100.00;102452.72;2002920;70;24167;-69
2022/05/27 11:55:44;;;;;;;14.00;12.67;;;;;;;19.13;100.00;102455.76;2019524;70;24150;-70
2022/05/27 11:58:19;;;;;;;14.10;12.73;;;;;;;19.21;100.00;102452.85;1974694;72;24586;-70
2022/05/27 12:00:52;;;;;;;12.67;11.67;;;;;;;19.12;100.00;102452.70;1980272;72;24176;-69
2022/05/27 12:06:35;;;;;;;13.40;12.30;;;;;;;19.44;100.00;102449.97;2049275;69;30561;-68
2022/05/27 12:09:09;;;;;;;13.63;12.37;;;;;;;19.63;100.00;102444.88;1948445;73;24653;-68
2022/05/27 12:11:43;;;;;;;13.43;12.23;;;;;;;19.63;100.00;102451.92;1935362;73;24113;-68
2022/05/27 12:14:19;;;;;;;13.73;12.53;;;;;;;19.48;100.00;102451.02;2016148;70;24161;-70
2022/05/27 12:16:49;;;;;;;14.17;12.57;;;;;;;19.35;100.00;102453.17;1935002;73;24160;-71
2022/05/27 12:19:23;;;;;;;13.33;11.97;;;;;;;19.31;100.00;102447.05;1934160;73;24199;-70
2022/05/27 12:21:57;;;;;;;13.37;12.20;;;;;;;19.32;100.00;102447.31;2017126;71;24109;-68
2022/05/27 12:24:31;;;;;;;13.03;11.67;;;;;;;19.54;100.00;102454.03;2021266;70;24156;-69
2022/05/27 12:27:04;;;;;;;17.47;16.20;;;;;;;19.45;100.00;102450.80;1930505;73;24167;-70
2022/05/27 12:29:36;;;;;;;17.17;15.97;;;;;;;19.45;100.00;102454.47;1931304;73;24671;-70
2022/05/27 12:32:11;;;;;;;14.60;13.50;;;;;;;19.29;100.00;102452.16;2015766;70;24214;-69
2022/05/27 12:34:44;;;;;;;13.63;12.43;;;;;;;19.48;100.00;102442.56;2016772;70;24170;-69
2022/05/27 12:37:25;;;;;;;13.30;11.93;;;;;;;19.51;100.00;102446.77;2011104;70;24690;-70
2022/05/27 12:40:49;;;;;;;13.60;12.40;;;;;;;19.68;100.00;102434.92;2014896;70;24593;-70
2022/05/27 12:43:26;;;;;;;13.80;12.33;;;;;;;19.72;100.00;102443.87;2004212;70;24157;-70
2022/05/27 12:46:15;;;;;;;12.80;11.80;;;;;;;19.70;100.00;102443.33;2014805;70;24568;-70
2022/05/27 12:48:46;;;;;;;13.80;12.50;;;;;;;19.68;100.00;102440.56;2029846;70;24147;-70
2022/05/27 12:55:07;;;;;;;13.60;12.50;;;;;;;19.70;100.00;102439.09;2046268;69;30595;-70
2022/05/27 13:03:51;;;;;;;13.30;11.97;;;;;;;19.82;100.00;102429.58;2049191;69;30558;-71
2022/05/27 13:06:43;;;;;;;12.77;11.77;;;;;;;19.85;100.00;102432.37;1946426;73;24167;-71
2022/05/27 13:09:38;;;;;;;13.53;12.10;;;;;;;19.88;100.00;102438.22;1940619;73;24684;-71
2022/05/27 13:12:10;;;;;;;13.37;12.37;;;;;;;19.98;100.00;102432.98;1964701;72;24575;-70
2022/05/27 13:14:53;;;;;;;13.40;12.13;;;;;;;19.88;100.00;102440.20;1939947;73;24457;-70
2022/05/27 13:17:34;;;;;;;13.17;12.13;;;;;;;19.81;100.00;102439.17;1943055;73;24132;-70